createdAt,value
2023-09-17T00:01:44.743Z,101067.00
2023-09-17T00:04:12.129Z,101069.00
2023-09-17T00:06:38.992Z,101062.00
2023-09-17T00:09:07.613Z,101061.00
2023-09-17T00:11:34.422Z,101058.00
2023-09-17T00:14:01.316Z,101059.00
2023-09-17T00:16:32.445Z,101053.00
2023-09-17T00:19:00.508Z,101050.00
2023-09-17T00:21:27.864Z,101058.00
2023-09-17T00:23:54.668Z,101062.00
2023-09-17T00:26:21.430Z,101061.00
2023-09-17T00:28:48.706Z,101047.00
2023-09-17T00:31:16.365Z,101054.00
2023-09-17T00:33:43.706Z,101059.00
2023-09-17T00:36:10.669Z,101053.00
2023-09-17T00:38:37.451Z,101050.00
2023-09-17T00:41:04.645Z,101056.00
2023-09-17T00:43:31.576Z,101053.00
2023-09-17T00:45:58.808Z,101054.00
2023-09-17T00:48:28.161Z,101065.00
2023-09-17T00:50:55.448Z,101051.00
2023-09-17T00:53:22.728Z,101055.00
2023-09-17T00:55:49.704Z,101061.00
2023-09-17T00:58:17.035Z,101059.00
2023-09-17T01:00:44.807Z,101057.00
2023-09-17T01:03:13.804Z,101056.00
2023-09-17T01:05:44.157Z,101051.00
2023-09-17T01:08:12.776Z,101052.00
2023-09-17T01:10:41.236Z,101051.00
2023-09-17T01:13:10.058Z,101041.00
2023-09-17T01:15:38.764Z,101054.00
2023-09-17T01:18:10.699Z,101043.00
2023-09-17T01:21:14.487Z,101050.00
2023-09-17T01:24:14.302Z,101049.00
2023-09-17T01:26:45.299Z,101050.00
2023-09-17T01:29:14.799Z,101058.00
2023-09-17T01:31:42.230Z,101054.00
2023-09-17T01:34:09.128Z,101056.00
2023-09-17T01:36:40.372Z,101049.00
2023-09-17T01:39:23.291Z,101053.00
2023-09-17T01:41:51.207Z,101059.00
2023-09-17T01:44:20.668Z,101060.00
2023-09-17T01:46:49.581Z,101060.00
2023-09-17T01:49:16.592Z,101051.00
2023-09-17T01:51:44.729Z,101056.00
2023-09-17T01:54:11.853Z,101052.00
2023-09-17T01:56:38.622Z,101048.00
2023-09-17T01:59:08.221Z,101053.00
2023-09-17T02:01:35.538Z,101046.00
2023-09-17T02:04:02.469Z,101050.00
2023-09-17T02:06:29.365Z,101055.00
2023-09-17T02:08:56.643Z,101053.00
2023-09-17T02:11:23.899Z,101051.00
2023-09-17T02:13:50.887Z,101052.00
2023-09-17T02:16:18.314Z,101054.00
2023-09-17T02:18:46.604Z,101055.00
2023-09-17T02:21:13.346Z,101071.00
2023-09-17T02:23:40.553Z,101069.00
2023-09-17T02:26:09.456Z,101062.00
2023-09-17T02:28:36.623Z,101062.00
2023-09-17T02:31:03.681Z,101061.00
2023-09-17T02:33:34.077Z,101053.00
2023-09-17T02:36:01.734Z,101059.00
2023-09-17T02:38:28.890Z,101059.00
2023-09-17T02:40:56.211Z,101047.00
2023-09-17T02:43:23.769Z,101056.00
2023-09-17T02:45:50.606Z,101058.00
2023-09-17T02:48:17.424Z,101060.00
2023-09-17T02:50:44.277Z,101062.00
2023-09-17T02:53:11.116Z,101062.00
2023-09-17T02:55:38.454Z,101069.00
2023-09-17T02:58:05.285Z,101059.00
2023-09-17T03:00:34.481Z,101057.00
2023-09-17T03:03:02.656Z,101057.00
2023-09-17T03:05:29.498Z,101045.00
2023-09-17T03:07:57.674Z,101060.00
2023-09-17T03:10:24.943Z,101055.00
2023-09-17T03:12:52.190Z,101054.00
2023-09-17T03:15:19.277Z,101053.00
2023-09-17T03:17:46.637Z,101053.00
2023-09-17T03:20:19.521Z,101056.00
2023-09-17T03:22:48.426Z,101059.00
2023-09-17T03:25:16.558Z,101053.00
2023-09-17T03:27:47.179Z,101056.00
2023-09-17T03:30:14.772Z,101049.00
2023-09-17T03:32:53.272Z,101048.00
2023-09-17T03:35:25.802Z,101057.00
2023-09-17T03:37:52.572Z,101058.00
2023-09-17T03:40:20.359Z,101062.00
2023-09-17T03:42:48.300Z,101054.00
2023-09-17T03:45:15.595Z,101052.00
2023-09-17T03:47:44.848Z,101060.00
2023-09-17T03:50:15.129Z,101056.00
2023-09-17T03:52:48.648Z,101053.00
2023-09-17T03:55:16.006Z,101058.00
2023-09-17T03:57:43.952Z,101063.00
2023-09-17T04:00:14.031Z,101062.00
2023-09-17T04:02:43.329Z,101056.00
2023-09-17T04:05:13.467Z,101056.00
2023-09-17T04:07:44.105Z,101056.00
2023-09-17T04:10:13.334Z,101066.00
2023-09-17T04:12:42.213Z,101061.00
2023-09-17T04:15:17.890Z,101071.00
2023-09-17T04:17:45.999Z,101067.00
2023-09-17T04:20:18.114Z,101067.00
2023-09-17T04:22:47.975Z,101062.00
2023-09-17T04:25:14.947Z,101062.00
2023-09-17T04:27:46.231Z,101068.00
2023-09-17T04:30:15.180Z,101069.00
2023-09-17T04:32:44.610Z,101081.00
2023-09-17T04:35:16.897Z,101081.00
2023-09-17T04:37:44.695Z,101080.00
2023-09-17T04:40:12.741Z,101072.00
2023-09-17T04:42:44.320Z,101090.00
2023-09-17T04:45:12.066Z,101082.00
2023-09-17T04:47:41.188Z,101082.00
2023-09-17T04:50:11.239Z,101077.00
2023-09-17T04:52:38.795Z,101090.00
2023-09-17T04:55:06.740Z,101096.00
2023-09-17T04:57:34.033Z,101094.00
2023-09-17T05:00:08.688Z,101096.00
2023-09-17T05:02:35.989Z,101102.00
2023-09-17T05:05:02.770Z,101096.00
2023-09-17T05:07:29.582Z,101100.00
2023-09-17T05:09:56.982Z,101104.00
2023-09-17T05:12:23.835Z,101102.00
2023-09-17T05:14:50.646Z,101101.00
2023-09-17T05:17:18.668Z,101101.00
2023-09-17T05:19:46.019Z,101102.00
2023-09-17T05:22:12.914Z,101104.00
2023-09-17T05:24:39.759Z,101108.00
2023-09-17T05:27:06.602Z,101100.00
2023-09-17T05:29:33.476Z,101111.00
2023-09-17T05:32:01.377Z,101105.00
2023-09-17T05:34:28.226Z,101106.00
2023-09-17T05:36:55.017Z,101115.00
2023-09-17T05:39:21.830Z,101104.00
2023-09-17T05:41:48.730Z,101102.00
2023-09-17T05:44:15.518Z,101118.00
2023-09-17T05:46:42.372Z,101105.00
2023-09-17T05:49:10.029Z,101115.00
2023-09-17T05:51:36.825Z,101117.00
2023-09-17T05:54:03.668Z,101124.00
2023-09-17T05:56:30.822Z,101125.00
2023-09-17T05:58:57.627Z,101117.00
2023-09-17T06:01:24.744Z,101124.00
2023-09-17T06:03:52.394Z,101127.00
2023-09-17T06:06:19.673Z,101128.00
2023-09-17T06:08:46.698Z,101136.00
2023-09-17T06:11:13.758Z,101131.00
2023-09-17T06:13:40.537Z,101139.00
2023-09-17T06:16:07.385Z,101144.00
2023-09-17T06:18:35.468Z,101139.00
2023-09-17T06:21:02.764Z,101150.00
2023-09-17T06:23:29.691Z,101150.00
2023-09-17T06:25:56.553Z,101149.00
2023-09-17T06:28:23.420Z,101139.00
2023-09-17T06:30:50.730Z,101148.00
2023-09-17T06:33:17.600Z,101153.00
2023-09-17T06:35:44.357Z,101148.00
2023-09-17T06:38:13.794Z,101145.00
2023-09-17T06:40:40.589Z,101152.00
2023-09-17T06:43:07.450Z,101144.00
2023-09-17T06:45:34.261Z,101145.00
2023-09-17T06:48:01.185Z,101150.00
2023-09-17T06:50:27.965Z,101148.00
2023-09-17T06:52:55.150Z,101149.00
2023-09-17T06:55:21.945Z,101152.00
2023-09-17T06:57:48.804Z,101156.00
2023-09-17T07:00:16.739Z,101161.00
2023-09-17T07:02:43.602Z,101163.00
2023-09-17T07:05:11.655Z,101161.00
2023-09-17T07:07:38.880Z,101165.00
2023-09-17T07:10:06.644Z,101163.00
2023-09-17T07:12:38.823Z,101171.00
2023-09-17T07:15:07.716Z,101171.00
2023-09-17T07:17:34.791Z,101173.00
2023-09-17T07:20:02.119Z,101175.00
2023-09-17T07:22:30.479Z,101177.00
2023-09-17T07:24:59.841Z,101172.00
2023-09-17T07:27:30.284Z,101179.00
2023-09-17T07:29:58.173Z,101182.00
2023-09-17T07:32:29.485Z,101178.00
2023-09-17T07:34:57.046Z,101178.00
2023-09-17T07:37:30.484Z,101180.00
2023-09-17T07:40:06.793Z,101176.00
2023-09-17T07:42:33.634Z,101180.00
2023-09-17T07:45:00.637Z,101194.00
2023-09-17T07:47:28.316Z,101184.00
2023-09-17T07:49:55.144Z,101178.00
2023-09-17T07:52:22.316Z,101182.00
2023-09-17T07:54:49.412Z,101188.00
2023-09-17T07:57:16.186Z,101183.00
2023-09-17T07:59:42.977Z,101182.00
2023-09-17T08:02:10.662Z,101190.00
2023-09-17T08:04:37.595Z,101186.00
2023-09-17T08:07:05.476Z,101184.00
2023-09-17T08:09:32.486Z,101183.00
2023-09-17T08:12:00.306Z,101183.00
2023-09-17T08:14:27.537Z,101186.00
2023-09-17T08:16:54.833Z,101202.00
2023-09-17T08:19:21.719Z,101185.00
2023-09-17T08:21:49.378Z,101190.00
2023-09-17T08:24:16.876Z,101188.00
2023-09-17T08:26:43.626Z,101191.00
2023-09-17T08:29:11.215Z,101190.00
2023-09-17T08:31:39.277Z,101190.00
2023-09-17T08:34:06.115Z,101191.00
2023-09-17T08:36:33.615Z,101193.00
2023-09-17T08:39:00.466Z,101191.00
2023-09-17T08:41:27.243Z,101180.00
2023-09-17T08:43:55.476Z,101187.00
2023-09-17T08:46:27.998Z,101199.00
2023-09-17T08:48:54.930Z,101192.00
2023-09-17T08:51:25.786Z,101190.00
2023-09-17T08:54:08.922Z,101184.00
2023-09-17T08:56:41.134Z,101181.00
2023-09-17T08:59:14.172Z,101181.00
2023-09-17T09:01:45.304Z,101178.00
2023-09-17T09:04:14.578Z,101182.00
2023-09-17T09:06:45.688Z,101172.00
2023-09-17T09:09:14.647Z,101185.00
2023-09-17T09:11:41.785Z,101182.00
2023-09-17T09:14:08.710Z,101182.00
2023-09-17T09:16:37.717Z,101179.00
2023-09-17T09:19:06.122Z,101172.00
2023-09-17T09:21:32.942Z,101177.00
2023-09-17T09:23:59.862Z,101191.00
2023-09-17T09:26:41.231Z,101189.00
2023-09-17T09:29:09.692Z,101178.00
2023-09-17T09:31:36.827Z,101177.00
2023-09-17T09:34:05.226Z,101175.00
2023-09-17T09:36:35.008Z,101174.00
2023-09-17T09:39:03.376Z,101186.00
2023-09-17T09:41:33.894Z,101171.00
2023-09-17T09:44:00.859Z,101171.00
2023-09-17T09:46:29.342Z,101170.00
2023-09-17T09:49:03.488Z,101171.00
2023-09-17T09:51:32.477Z,101180.00
2023-09-17T09:53:59.257Z,101167.00
2023-09-17T09:56:30.241Z,101176.00
2023-09-17T09:58:58.562Z,101170.00
2023-09-17T10:01:26.910Z,101178.00
2023-09-17T10:03:59.489Z,101175.00
2023-09-17T10:06:26.697Z,101168.00
2023-09-17T10:08:54.927Z,101170.00
2023-09-17T10:11:23.734Z,101166.00
2023-09-17T10:13:55.097Z,101172.00
2023-09-17T10:16:22.065Z,101173.00
2023-09-17T10:18:52.000Z,101170.00
2023-09-17T10:21:19.944Z,101181.00
2023-09-17T10:23:48.141Z,101175.00
2023-09-17T10:26:16.684Z,101169.00
2023-09-17T10:28:45.342Z,101169.00
2023-09-17T10:31:13.278Z,101164.00
2023-09-17T10:33:45.305Z,101168.00
2023-09-17T10:36:15.222Z,101164.00
2023-09-17T10:38:45.119Z,101167.00
2023-09-17T10:41:12.572Z,101164.00
2023-09-17T10:43:41.179Z,101164.00
2023-09-17T10:46:08.348Z,101169.00
2023-09-17T10:48:35.622Z,101166.00
2023-09-17T10:51:04.508Z,101173.00
2023-09-17T10:53:32.495Z,101174.00
2023-09-17T10:56:11.590Z,101171.00
2023-09-17T10:58:43.417Z,101174.00
2023-09-17T11:01:15.920Z,101175.00
2023-09-17T11:03:52.408Z,101179.00
2023-09-17T11:06:26.025Z,101176.00
2023-09-17T11:08:55.909Z,101180.00
2023-09-17T11:11:26.061Z,101179.00
2023-09-17T11:13:54.802Z,101171.00
2023-09-17T11:16:27.339Z,101165.00
2023-09-17T11:19:17.599Z,101171.00
2023-09-17T11:21:50.931Z,101167.00
2023-09-17T11:24:20.989Z,101172.00
2023-09-17T11:26:49.781Z,101171.00
2023-09-17T11:29:16.706Z,101182.00
2023-09-17T11:31:52.681Z,101175.00
2023-09-17T11:34:21.723Z,101176.00
2023-09-17T11:36:49.477Z,101182.00
2023-09-17T11:39:17.468Z,101174.00
2023-09-17T11:41:52.271Z,101165.00
2023-09-17T11:44:21.710Z,101170.00
2023-09-17T11:46:49.737Z,101167.00
2023-09-17T11:49:17.310Z,101164.00
2023-09-17T11:51:48.348Z,101166.00
2023-09-17T11:54:21.613Z,101175.00
2023-09-17T11:56:55.102Z,101176.00
2023-09-17T11:59:23.744Z,101174.00
2023-09-17T12:01:59.005Z,101169.00
2023-09-17T12:04:30.133Z,101171.00
2023-09-17T12:06:58.550Z,101170.00
2023-09-17T12:09:39.392Z,101177.00
2023-09-17T12:12:07.518Z,101167.00
2023-09-17T12:14:35.062Z,101180.00
2023-09-17T12:17:03.057Z,101170.00
2023-09-17T12:19:31.109Z,101165.00
2023-09-17T12:22:00.290Z,101175.00
2023-09-17T12:24:35.773Z,101181.00
2023-09-17T12:27:14.675Z,101172.00
2023-09-17T12:29:42.303Z,101172.00
2023-09-17T12:32:13.740Z,101173.00
2023-09-17T12:34:41.482Z,101164.00
2023-09-17T12:37:10.659Z,101163.00
2023-09-17T12:39:37.434Z,101164.00
2023-09-17T12:42:04.933Z,101172.00
2023-09-17T12:44:31.760Z,101170.00
2023-09-17T12:46:58.696Z,101175.00
2023-09-17T12:49:27.505Z,101164.00
2023-09-17T12:51:54.513Z,101160.00
2023-09-17T12:54:22.833Z,101160.00
2023-09-17T12:56:51.901Z,101163.00
2023-09-17T12:59:30.338Z,101158.00
2023-09-17T13:02:00.977Z,101168.00
2023-09-17T13:04:40.409Z,101166.00
2023-09-17T13:07:15.319Z,101152.00
2023-09-17T13:09:43.100Z,101156.00
2023-09-17T13:12:10.038Z,101147.00
2023-09-17T13:14:38.678Z,101158.00
2023-09-17T13:17:06.134Z,101161.00
2023-09-17T13:19:33.532Z,101162.00
2023-09-17T13:22:01.000Z,101159.00
2023-09-17T13:24:28.084Z,101159.00
2023-09-17T13:27:00.982Z,101143.00
2023-09-17T13:29:43.705Z,101149.00
2023-09-17T13:32:12.137Z,101146.00
2023-09-17T13:34:42.042Z,101145.00
2023-09-17T13:37:10.530Z,101140.00
2023-09-17T13:39:47.272Z,101137.00
2023-09-17T13:42:14.413Z,101136.00
2023-09-17T13:44:41.356Z,101128.00
2023-09-17T13:47:12.489Z,101131.00
2023-09-17T13:49:41.616Z,101129.00
2023-09-17T13:52:09.719Z,101136.00
2023-09-17T13:54:41.971Z,101132.00
2023-09-17T13:57:08.784Z,101137.00
2023-09-17T13:59:35.845Z,101133.00
2023-09-17T14:02:06.945Z,101130.00
2023-09-17T14:04:36.646Z,101126.00
2023-09-17T14:07:03.822Z,101116.00
2023-09-17T14:09:30.618Z,101125.00
2023-09-17T14:11:57.389Z,101119.00
2023-09-17T14:14:24.148Z,101129.00
2023-09-17T14:16:51.097Z,101140.00
2023-09-17T14:19:19.784Z,101127.00
2023-09-17T14:21:48.170Z,101133.00
2023-09-17T14:24:15.132Z,101126.00
2023-09-17T14:26:42.001Z,101121.00
2023-09-17T14:29:08.848Z,101120.00
2023-09-17T14:31:35.857Z,101120.00
2023-09-17T14:34:02.978Z,101122.00
2023-09-17T14:36:29.877Z,101119.00
2023-09-17T14:38:56.867Z,101112.00
2023-09-17T14:41:23.729Z,101115.00
2023-09-17T14:43:50.900Z,101119.00
2023-09-17T14:46:17.898Z,101103.00
2023-09-17T14:48:44.749Z,101112.00
2023-09-17T14:51:11.503Z,101117.00
2023-09-17T14:53:38.338Z,101106.00
2023-09-17T14:56:05.240Z,101104.00
2023-09-17T14:58:32.125Z,101116.00
2023-09-17T15:01:01.544Z,101115.00
2023-09-17T15:03:30.817Z,101120.00
2023-09-17T15:05:58.021Z,101103.00
2023-09-17T15:08:25.416Z,101095.00
2023-09-17T15:10:52.508Z,101099.00
2023-09-17T15:13:19.320Z,101099.00
2023-09-17T15:15:49.430Z,101093.00
2023-09-17T15:18:17.360Z,101099.00
2023-09-17T15:20:47.131Z,101100.00
2023-09-17T15:23:14.182Z,101104.00
2023-09-17T15:25:41.020Z,101096.00
2023-09-17T15:28:08.595Z,101092.00
2023-09-17T15:30:35.493Z,101095.00
2023-09-17T15:33:02.625Z,101104.00
2023-09-17T15:35:30.872Z,101099.00
2023-09-17T15:38:07.082Z,101104.00
2023-09-17T15:40:35.479Z,101110.00
2023-09-17T15:43:03.179Z,101101.00
2023-09-17T15:45:30.131Z,101091.00
2023-09-17T15:47:57.321Z,101100.00
2023-09-17T15:50:24.519Z,101091.00
2023-09-17T15:52:51.916Z,101092.00
2023-09-17T15:55:18.774Z,101092.00
2023-09-17T15:57:45.660Z,101090.00
2023-09-17T16:00:14.058Z,101101.00
2023-09-17T16:02:41.338Z,101096.00
2023-09-17T16:05:08.517Z,101101.00
2023-09-17T16:07:35.600Z,101101.00
2023-09-17T16:10:02.459Z,101093.00
2023-09-17T16:12:29.409Z,101096.00
2023-09-17T16:14:57.272Z,101099.00
2023-09-17T16:17:24.064Z,101104.00
2023-09-17T16:19:56.395Z,101109.00
2023-09-17T16:22:28.061Z,101092.00
2023-09-17T16:24:54.961Z,101103.00
2023-09-17T16:27:21.800Z,101103.00
2023-09-17T16:29:48.734Z,101091.00
2023-09-17T16:32:16.413Z,101105.00
2023-09-17T16:34:43.480Z,101095.00
2023-09-17T16:37:10.822Z,101107.00
2023-09-17T16:39:37.675Z,101107.00
2023-09-17T16:42:04.765Z,101091.00
2023-09-17T16:44:31.595Z,101092.00
2023-09-17T16:46:58.481Z,101096.00
2023-09-17T16:49:25.293Z,101088.00
2023-09-17T16:51:52.117Z,101093.00
2023-09-17T16:54:19.541Z,101082.00
2023-09-17T16:56:46.387Z,101085.00
2023-09-17T16:59:13.566Z,101078.00
2023-09-17T17:01:40.738Z,101069.00
2023-09-17T17:04:07.784Z,101078.00
2023-09-17T17:06:34.668Z,101079.00
2023-09-17T17:09:01.481Z,101073.00
2023-09-17T17:11:30.689Z,101071.00
2023-09-17T17:13:57.737Z,101072.00
2023-09-17T17:16:24.646Z,101069.00
2023-09-17T17:18:51.513Z,101079.00
2023-09-17T17:21:19.259Z,101073.00
2023-09-17T17:23:46.085Z,101073.00
2023-09-17T17:26:13.044Z,101082.00
2023-09-17T17:28:40.224Z,101080.00
2023-09-17T17:31:07.033Z,101078.00
2023-09-17T17:33:33.836Z,101086.00
2023-09-17T17:36:01.744Z,101085.00
2023-09-17T17:38:28.633Z,101089.00
2023-09-17T17:40:55.431Z,101085.00
2023-09-17T17:43:22.391Z,101092.00
2023-09-17T17:45:49.383Z,101081.00
2023-09-17T17:48:16.792Z,101077.00
2023-09-17T17:50:45.664Z,101079.00
2023-09-17T17:53:13.528Z,101083.00
2023-09-17T17:55:40.621Z,101085.00
2023-09-17T17:58:07.815Z,101082.00
2023-09-17T18:00:34.748Z,101088.00
2023-09-17T18:03:01.865Z,101081.00
2023-09-17T18:05:30.050Z,101082.00
2023-09-17T18:07:56.858Z,101084.00
2023-09-17T18:10:23.864Z,101074.00
2023-09-17T18:12:50.668Z,101079.00
2023-09-17T18:15:21.149Z,101079.00
2023-09-17T18:17:49.008Z,101073.00
2023-09-17T18:20:17.845Z,101081.00
2023-09-17T18:22:44.795Z,101074.00
2023-09-17T18:25:11.583Z,101077.00
2023-09-17T18:27:44.018Z,101069.00
2023-09-17T18:30:11.258Z,101070.00
2023-09-17T18:32:38.047Z,101062.00
2023-09-17T18:35:05.709Z,101070.00
2023-09-17T18:37:34.171Z,101068.00
2023-09-17T18:40:01.007Z,101063.00
2023-09-17T18:42:30.193Z,101064.00
2023-09-17T18:44:57.901Z,101074.00
2023-09-17T18:47:24.714Z,101071.00
2023-09-17T18:49:53.237Z,101069.00
2023-09-17T18:52:20.305Z,101065.00
2023-09-17T18:54:47.437Z,101071.00
2023-09-17T18:57:16.457Z,101063.00
2023-09-17T18:59:45.429Z,101064.00
2023-09-17T19:02:12.459Z,101072.00
2023-09-17T19:04:39.256Z,101058.00
2023-09-17T19:07:06.028Z,101068.00
2023-09-17T19:09:32.795Z,101073.00
2023-09-17T19:12:00.666Z,101067.00
2023-09-17T19:14:27.570Z,101064.00
2023-09-17T19:16:54.388Z,101057.00
2023-09-17T19:19:21.613Z,101059.00
2023-09-17T19:21:48.395Z,101061.00
2023-09-17T19:24:15.206Z,101064.00
2023-09-17T19:26:42.400Z,101063.00
2023-09-17T19:29:09.502Z,101054.00
2023-09-17T19:31:36.331Z,101043.00
2023-09-17T19:34:04.804Z,101039.00
2023-09-17T19:36:34.497Z,101038.00
2023-09-17T19:39:01.363Z,101029.00
2023-09-17T19:41:34.566Z,101043.00
2023-09-17T19:44:01.579Z,101039.00
2023-09-17T19:46:29.821Z,101045.00
2023-09-17T19:48:56.833Z,101035.00
2023-09-17T19:51:23.663Z,101038.00
2023-09-17T19:53:50.586Z,101026.00
2023-09-17T19:56:19.843Z,101027.00
2023-09-17T19:58:46.753Z,101023.00
2023-09-17T20:01:13.610Z,101028.00
2023-09-17T20:03:40.704Z,101013.00
2023-09-17T20:06:07.615Z,101019.00
2023-09-17T20:08:34.789Z,101016.00
2023-09-17T20:11:01.788Z,101009.00
2023-09-17T20:13:28.753Z,101001.00
2023-09-17T20:15:55.605Z,101005.00
2023-09-17T20:18:22.437Z,101009.00
2023-09-17T20:20:50.156Z,101013.00
2023-09-17T20:23:17.043Z,101014.00
2023-09-17T20:25:45.656Z,101010.00
2023-09-17T20:28:14.680Z,101018.00
2023-09-17T20:30:42.878Z,101008.00
2023-09-17T20:33:11.156Z,101007.00
2023-09-17T20:35:40.623Z,101009.00
2023-09-17T20:38:07.626Z,101009.00
2023-09-17T20:40:36.024Z,101005.00
2023-09-17T20:43:03.265Z,101006.00
2023-09-17T20:45:30.129Z,101000.00
2023-09-17T20:47:57.741Z,100993.00
2023-09-17T20:50:25.461Z,100992.00
2023-09-17T20:52:52.966Z,100993.00
2023-09-17T20:55:19.765Z,100998.00
2023-09-17T20:57:46.581Z,100999.00
2023-09-17T21:00:14.665Z,100998.00
2023-09-17T21:02:41.722Z,100999.00
2023-09-17T21:05:09.046Z,100997.00
2023-09-17T21:07:35.887Z,100995.00
2023-09-17T21:10:04.072Z,100997.00
2023-09-17T21:12:33.816Z,100999.00
2023-09-17T21:15:01.141Z,101003.00
2023-09-17T21:17:28.489Z,100999.00
2023-09-17T21:19:55.372Z,100996.00
2023-09-17T21:22:23.669Z,100997.00
2023-09-17T21:24:50.537Z,100993.00
2023-09-17T21:27:17.286Z,100988.00
2023-09-17T21:29:44.900Z,100990.00
2023-09-17T21:32:11.912Z,100980.00
2023-09-17T21:34:39.297Z,100979.00
2023-09-17T21:37:07.455Z,100985.00
2023-09-17T21:39:34.241Z,100969.00
2023-09-17T21:42:01.071Z,100970.00
2023-09-17T21:44:28.240Z,100974.00
2023-09-17T21:46:56.686Z,100984.00
2023-09-17T21:49:23.575Z,100968.00
2023-09-17T21:51:50.356Z,100967.00
2023-09-17T21:54:17.565Z,100966.00
2023-09-17T21:56:44.709Z,100959.00
2023-09-17T21:59:12.091Z,100961.00
2023-09-17T22:01:38.972Z,100955.00
2023-09-17T22:04:06.296Z,100955.00
2023-09-17T22:06:34.169Z,100954.00
2023-09-17T22:09:02.958Z,100954.00
2023-09-17T22:11:30.839Z,100948.00
2023-09-17T22:13:57.652Z,100945.00
2023-09-17T22:16:24.848Z,100947.00
2023-09-17T22:18:52.316Z,100942.00
2023-09-17T22:21:19.337Z,100939.00
2023-09-17T22:23:46.165Z,100950.00
2023-09-17T22:26:13.048Z,100953.00
2023-09-17T22:28:39.864Z,100948.00
2023-09-17T22:31:15.360Z,100936.00
2023-09-17T22:33:44.355Z,100941.00
2023-09-17T22:36:12.774Z,100930.00
2023-09-17T22:38:44.867Z,100928.00
2023-09-17T22:41:24.285Z,100923.00
2023-09-17T22:43:57.621Z,100930.00
2023-09-17T22:46:32.196Z,100922.00
2023-09-17T22:48:59.533Z,100927.00
2023-09-17T22:51:31.372Z,100928.00
2023-09-17T22:53:59.186Z,100928.00
2023-09-17T22:56:26.632Z,100930.00
2023-09-17T22:58:53.681Z,100929.00
2023-09-17T23:01:23.652Z,100920.00
2023-09-17T23:03:50.464Z,100926.00
2023-09-17T23:06:17.514Z,100929.00
2023-09-17T23:08:44.431Z,100923.00
2023-09-17T23:11:11.485Z,100925.00
2023-09-17T23:13:38.728Z,100926.00
2023-09-17T23:16:05.804Z,100926.00
2023-09-17T23:18:33.824Z,100926.00
2023-09-17T23:21:04.559Z,100926.00
2023-09-17T23:23:32.021Z,100928.00
2023-09-17T23:25:58.967Z,100923.00
2023-09-17T23:28:26.642Z,100925.00
2023-09-17T23:30:54.578Z,100922.00
2023-09-17T23:33:21.547Z,100920.00
2023-09-17T23:35:50.975Z,100916.00
2023-09-17T23:38:18.758Z,100920.00
2023-09-17T23:40:45.668Z,100919.00
2023-09-17T23:43:13.149Z,100906.00
2023-09-17T23:45:42.728Z,100905.00
2023-09-17T23:48:10.049Z,100888.00
2023-09-17T23:50:37.030Z,100890.00
2023-09-17T23:53:07.958Z,100890.00
2023-09-17T23:55:35.396Z,100887.00
2023-09-17T23:58:02.231Z,100891.00
